Terminal Aerodrome Forecast
Issued by NWS

Home | Current Version | Previous Version | Text Only | Print | Product List | Glossary On
Versions: 1 2 3 4 5 6 7 8 9 10 11 12 13 14 15 16
000
FTUS45 KTFX 181737
TAFBZN
TAF
KBZN 181737Z 1818/1918 VRB06KT P6SM FEW060
     FM182100 31008G18KT P6SM SCT060 BKN120
     FM190200 VRB03KT P6SM BKN050 OVC100
     FM190900 VRB03KT P6SM OVC050=

USA.gov is the U.S. government's official web portal to all federal, state and local government web resources and services.